KBRL/BRL METAR and TAF weather

Enter ICAO airport designator
Station Type Date Time Source
KBRL METAR 2019/07/17 11:53 UTC NOAA

KBRL 171153Z AUTO 00000KT 10SM SCT001 SCT049 23/21 A2993 RMK AO2 SLP128 T02330211 10233 20206 51006


Station Type Date Time Source
KBRL Decoded METAR 2019/07/17 11:53 UTC NOAA

BURLINGTON REGIONAL AIRPORT, IA, United States (KBRL) 40-46N 91-08W 211M
Jul 17, 2019 - 07:53 AM EDT / 2019.07.17 1153 UTC
Wind: Calm:0
Visibility: 10 mile(s):0
Sky conditions: partly cloudy
Temperature: 73.9 F (23.3 C)
Dew Point: 70.0 F (21.1 C)
Relative Humidity: 87%
Pressure (altimeter): 29.93 in. Hg (1013 hPa)
Pressure tendency: 0.02 inches (0.6 hPa) higher than three hours ago
ob: KBRL 171153Z AUTO 00000KT 10SM SCT001 SCT049 23/21 A2993 RMK AO2 SLP128 T02330211 10233 20206 51006
cycle: 12

Station Type Date Time Source
KBRL TAF 2019/07/17 12:33 UTC NOAA

TAF KBRL 171130Z 1712/1812 18006KT P6SM SCT050 BKN200
FM172100 16010KT P6SM SCT050 BKN200
FM181000 19009KT P6SM BKN120

Example: see airport list